createdAt,value
2019-06-27T00:01:55.887Z,94.57
2019-06-27T00:05:04.122Z,93.15
2019-06-27T00:08:10.244Z,92.34
2019-06-27T00:11:16.358Z,94.30
2019-06-27T00:14:22.704Z,95.34
2019-06-27T00:17:28.969Z,95.74
2019-06-27T00:20:35.570Z,96.03
2019-06-27T00:23:42.323Z,94.42
2019-06-27T00:26:57.179Z,92.18
2019-06-27T00:29:56.147Z,92.89
2019-06-27T00:33:02.608Z,93.96
2019-06-27T00:36:08.741Z,93.94
2019-06-27T00:39:14.815Z,95.66
2019-06-27T00:42:21.139Z,94.66
2019-06-27T00:45:27.725Z,92.74
2019-06-27T00:48:34.062Z,91.22
2019-06-27T00:51:40.176Z,92.02
2019-06-27T00:54:46.230Z,91.02
2019-06-27T00:57:52.337Z,94.31
2019-06-27T01:00:58.602Z,92.08
2019-06-27T01:04:04.970Z,90.54
2019-06-27T01:07:11.001Z,91.41
2019-06-27T01:10:18.467Z,93.97
2019-06-27T01:13:24.516Z,95.32
2019-06-27T01:16:30.711Z,95.87
2019-06-27T01:19:36.765Z,95.64
2019-06-27T01:22:43.454Z,95.53
2019-06-27T01:25:52.531Z,95.57
2019-06-27T01:28:59.270Z,94.92
2019-06-27T01:32:06.574Z,95.29
2019-06-27T01:35:14.271Z,95.67
2019-06-27T01:38:20.701Z,95.92
2019-06-27T01:41:27.539Z,96.67
2019-06-27T01:44:42.351Z,95.71
2019-06-27T01:47:48.912Z,96.06
2019-06-27T01:50:55.048Z,97.21
2019-06-27T01:54:01.607Z,96.12
2019-06-27T01:57:07.895Z,95.18
2019-06-27T02:00:14.883Z,94.64
2019-06-27T02:03:21.492Z,95.02
2019-06-27T02:06:27.883Z,94.54
2019-06-27T02:09:40.215Z,95.51
2019-06-27T02:12:46.681Z,95.40
2019-06-27T02:15:53.055Z,96.28
2019-06-27T02:18:59.510Z,96.78
2019-06-27T02:22:05.539Z,97.47
2019-06-27T02:25:12.874Z,96.01
2019-06-27T02:28:19.250Z,95.99
2019-06-27T02:31:25.587Z,95.62
2019-06-27T02:34:31.890Z,95.74
2019-06-27T02:37:40.262Z,96.15
2019-06-27T02:40:46.341Z,95.14
2019-06-27T02:43:52.394Z,93.60
2019-06-27T02:46:58.495Z,93.24
2019-06-27T02:50:04.789Z,94.42
2019-06-27T02:53:11.453Z,95.40
2019-06-27T02:56:17.510Z,96.38
2019-06-27T02:59:23.897Z,96.69
2019-06-27T03:02:30.365Z,95.79
2019-06-27T03:05:36.820Z,95.51
2019-06-27T03:08:42.946Z,93.62
2019-06-27T03:11:49.468Z,95.81
2019-06-27T03:14:55.864Z,96.06
2019-06-27T03:18:02.262Z,96.05
2019-06-27T03:21:08.989Z,96.58
2019-06-27T03:24:15.648Z,94.97
2019-06-27T03:27:22.280Z,95.29
2019-06-27T03:30:28.640Z,94.03
2019-06-27T03:33:34.972Z,93.45
2019-06-27T03:36:41.270Z,94.36
2019-06-27T03:39:47.864Z,92.44
2019-06-27T03:42:54.323Z,92.95
2019-06-27T03:46:03.692Z,93.90
2019-06-27T03:49:10.371Z,94.85
2019-06-27T03:52:16.717Z,95.02
2019-06-27T03:55:23.100Z,95.70
2019-06-27T03:58:29.424Z,95.41
2019-06-27T04:01:36.144Z,96.16
2019-06-27T04:04:42.804Z,95.50
2019-06-27T04:07:49.123Z,96.04
2019-06-27T04:10:55.627Z,95.54
2019-06-27T04:14:01.990Z,96.82
2019-06-27T04:17:08.454Z,96.44
2019-06-27T04:20:15.387Z,96.66
2019-06-27T04:23:21.708Z,96.80
2019-06-27T04:26:28.117Z,96.04
2019-06-27T04:29:35.118Z,97.20
2019-06-27T04:32:41.680Z,97.19
2019-06-27T04:35:56.045Z,98.06
2019-06-27T04:39:02.780Z,98.22
2019-06-27T04:42:09.430Z,98.89
2019-06-27T04:45:16.187Z,98.81
2019-06-27T04:48:22.598Z,98.45
2019-06-27T04:51:28.927Z,95.96
2019-06-27T04:54:35.312Z,97.38
2019-06-27T04:57:41.612Z,99.49
2019-06-27T05:00:47.984Z,98.16
2019-06-27T05:03:54.412Z,97.37
2019-06-27T05:07:00.726Z,97.73
2019-06-27T05:10:07.736Z,98.04
2019-06-27T05:13:14.070Z,98.01
2019-06-27T05:16:20.403Z,99.52
2019-06-27T05:19:27.203Z,99.24
2019-06-27T05:22:33.593Z,98.29
2019-06-27T05:25:39.919Z,97.47
2019-06-27T05:28:46.735Z,99.51
2019-06-27T05:31:53.317Z,100.00
2019-06-27T05:35:00.711Z,100.00
2019-06-27T05:38:07.102Z,98.62
2019-06-27T05:41:13.735Z,99.29
2019-06-27T05:44:20.080Z,98.98
2019-06-27T05:47:26.736Z,100.00
2019-06-27T05:50:33.122Z,99.01
2019-06-27T05:53:39.493Z,99.92
2019-06-27T05:56:45.995Z,100.00
2019-06-27T05:59:53.367Z,100.00
2019-06-27T06:03:00.028Z,100.00
2019-06-27T06:06:09.672Z,99.62
2019-06-27T06:09:16.274Z,98.80
2019-06-27T06:12:22.897Z,98.80
2019-06-27T06:16:18.409Z,97.37
2019-06-27T06:19:25.769Z,98.46
2019-06-27T06:22:33.225Z,98.20
2019-06-27T06:25:39.725Z,97.04
2019-06-27T06:28:46.279Z,99.30
2019-06-27T06:31:52.712Z,99.19
2019-06-27T06:34:59.397Z,99.32
2019-06-27T06:38:06.087Z,99.54
2019-06-27T06:41:12.434Z,98.50
2019-06-27T06:44:18.843Z,99.76
2019-06-27T06:47:25.478Z,97.09
2019-06-27T06:50:31.829Z,99.53
2019-06-27T06:53:38.272Z,99.93
2019-06-27T06:56:44.795Z,99.55
2019-06-27T06:59:51.113Z,97.14
2019-06-27T07:02:57.546Z,97.18
2019-06-27T07:06:04.113Z,97.40
2019-06-27T07:09:10.607Z,96.20
2019-06-27T07:12:17.272Z,94.84
2019-06-27T07:15:23.695Z,95.21
2019-06-27T07:18:30.176Z,94.17
2019-06-27T07:21:36.701Z,93.38
2019-06-27T07:24:43.008Z,91.86
2019-06-27T07:27:49.303Z,92.26
2019-06-27T07:30:55.652Z,92.49
2019-06-27T07:34:02.025Z,90.38
2019-06-27T07:37:08.626Z,90.17
2019-06-27T07:40:15.561Z,90.32
2019-06-27T07:43:21.990Z,91.29
2019-06-27T07:46:28.290Z,87.96
2019-06-27T07:49:34.689Z,89.97
2019-06-27T07:52:40.992Z,91.08
2019-06-27T07:55:47.328Z,89.07
2019-06-27T07:58:53.696Z,90.49
2019-06-27T08:02:00.035Z,87.86
2019-06-27T08:05:06.523Z,87.09
2019-06-27T08:08:14.007Z,86.64
2019-06-27T08:11:20.385Z,84.49
2019-06-27T08:14:27.667Z,83.98
2019-06-27T08:17:33.978Z,81.42
2019-06-27T08:20:40.313Z,83.19
2019-06-27T08:23:46.643Z,81.90
2019-06-27T08:26:52.953Z,80.26
2019-06-27T08:29:59.297Z,82.13
2019-06-27T08:33:05.774Z,79.23
2019-06-27T08:36:12.149Z,72.47
2019-06-27T08:39:18.720Z,74.21
2019-06-27T08:42:25.207Z,72.88
2019-06-27T08:45:31.596Z,74.42
2019-06-27T08:48:37.904Z,73.85
2019-06-27T08:51:44.287Z,73.23
2019-06-27T08:54:51.563Z,71.83
2019-06-27T08:57:57.893Z,67.30
2019-06-27T09:01:04.377Z,66.88
2019-06-27T09:04:10.934Z,70.46
2019-06-27T09:07:17.482Z,66.19
2019-06-27T09:10:24.267Z,60.95
2019-06-27T09:13:30.589Z,59.47
2019-06-27T09:16:37.180Z,60.11
2019-06-27T09:19:43.718Z,57.11
2019-06-27T09:22:51.037Z,57.47
2019-06-27T09:25:57.704Z,59.61
2019-06-27T09:29:04.087Z,59.60
2019-06-27T09:32:24.079Z,64.24
2019-06-27T09:35:18.672Z,63.80
2019-06-27T09:38:24.703Z,57.39
2019-06-27T09:41:31.170Z,56.26
2019-06-27T09:44:37.553Z,55.05
2019-06-27T09:47:44.361Z,54.64
2019-06-27T09:50:50.397Z,52.87
2019-06-27T09:53:56.891Z,50.56
2019-06-27T09:57:04.173Z,49.85
2019-06-27T10:00:12.577Z,44.43
2019-06-27T10:03:18.957Z,43.81
2019-06-27T10:06:26.328Z,47.94
2019-06-27T10:09:33.553Z,41.16
2019-06-27T10:12:42.832Z,44.62
2019-06-27T10:15:47.442Z,48.01
2019-06-27T10:18:55.034Z,48.01
2019-06-27T10:22:01.192Z,48.01
2019-06-27T10:25:07.557Z,47.78
2019-06-27T10:28:13.602Z,50.70
2019-06-27T10:31:20.618Z,48.62
2019-06-27T10:34:26.740Z,48.89
2019-06-27T10:37:33.017Z,48.59
2019-06-27T10:40:39.114Z,47.33
2019-06-27T10:43:45.622Z,47.82
2019-06-27T10:46:51.828Z,48.14
2019-06-27T10:49:58.856Z,48.74
2019-06-27T10:53:05.165Z,46.75
2019-06-27T10:56:11.225Z,44.59
2019-06-27T10:59:17.254Z,41.69
2019-06-27T11:02:23.360Z,41.78
2019-06-27T11:05:29.769Z,42.50
2019-06-27T11:08:35.817Z,40.98
2019-06-27T11:11:42.050Z,41.64
2019-06-27T11:14:58.582Z,41.24
2019-06-27T11:17:55.915Z,42.13
2019-06-27T11:21:02.177Z,41.06
2019-06-27T11:24:08.216Z,43.11
2019-06-27T11:27:14.302Z,42.48
2019-06-27T11:30:20.406Z,41.32
2019-06-27T11:33:32.785Z,40.76
2019-06-27T11:36:34.498Z,38.87
2019-06-27T11:39:40.705Z,36.90
2019-06-27T11:42:46.781Z,33.85
2019-06-27T11:45:53.504Z,36.09
2019-06-27T11:48:59.617Z,37.74
2019-06-27T11:52:05.750Z,35.91
2019-06-27T11:55:12.162Z,35.11
2019-06-27T11:58:18.308Z,34.50
2019-06-27T12:01:24.411Z,33.77
2019-06-27T12:04:30.435Z,36.33
2019-06-27T12:07:36.468Z,36.14
2019-06-27T12:10:43.871Z,37.49
2019-06-27T12:13:49.909Z,35.04
2019-06-27T12:16:56.219Z,33.49
2019-06-27T12:20:02.331Z,34.08
2019-06-27T12:23:08.715Z,32.11
2019-06-27T12:26:14.987Z,33.17
2019-06-27T12:29:21.034Z,33.77
2019-06-27T12:32:27.241Z,30.46
2019-06-27T12:35:33.302Z,29.23
2019-06-27T12:38:39.332Z,30.52
2019-06-27T12:41:46.927Z,29.17
2019-06-27T12:44:53.011Z,31.03
2019-06-27T12:48:06.425Z,30.59
2019-06-27T12:51:07.613Z,30.51
2019-06-27T12:54:13.779Z,29.29
2019-06-27T12:57:19.836Z,30.20
2019-06-27T13:00:27.270Z,32.12
2019-06-27T13:03:33.445Z,29.82
2019-06-27T13:06:39.601Z,30.96
2019-06-27T13:09:46.800Z,30.68
2019-06-27T13:12:52.860Z,30.99
2019-06-27T13:15:58.987Z,30.42
2019-06-27T13:19:05.044Z,29.63
2019-06-27T13:22:11.200Z,30.32
2019-06-27T13:25:17.349Z,30.72
2019-06-27T13:28:23.383Z,30.24
2019-06-27T13:31:29.499Z,29.62
2019-06-27T13:34:40.259Z,30.55
2019-06-27T13:37:44.139Z,30.79
2019-06-27T13:40:50.163Z,30.77
2019-06-27T13:43:56.207Z,30.23
2019-06-27T13:47:02.591Z,28.89
2019-06-27T13:50:09.284Z,28.69
2019-06-27T13:53:16.452Z,29.06
2019-06-27T13:56:22.497Z,28.79
2019-06-27T13:59:28.909Z,28.90
2019-06-27T14:02:35.049Z,28.45
2019-06-27T14:05:41.758Z,29.83
2019-06-27T14:08:49.154Z,29.55
2019-06-27T14:11:55.707Z,29.07
2019-06-27T14:15:01.906Z,28.80
2019-06-27T14:18:08.244Z,28.49
2019-06-27T14:21:14.419Z,28.31
2019-06-27T14:24:20.668Z,27.83
2019-06-27T14:27:26.901Z,26.93
2019-06-27T14:30:33.026Z,26.87
2019-06-27T14:33:39.290Z,26.97
2019-06-27T14:36:45.392Z,27.35
2019-06-27T14:39:51.438Z,26.81
2019-06-27T14:42:57.478Z,27.08
2019-06-27T14:46:03.536Z,28.06
2019-06-27T14:49:09.597Z,27.65
2019-06-27T14:52:16.313Z,26.80
2019-06-27T14:55:22.997Z,27.55
2019-06-27T14:58:29.061Z,26.75
2019-06-27T15:01:35.147Z,27.12
2019-06-27T15:04:41.222Z,26.87
2019-06-27T15:07:47.755Z,28.70
2019-06-27T15:10:54.176Z,28.10
2019-06-27T15:14:00.253Z,28.40
2019-06-27T15:17:06.434Z,28.11
2019-06-27T15:20:12.857Z,28.08
2019-06-27T15:23:20.571Z,28.66
2019-06-27T15:26:26.615Z,27.55
2019-06-27T15:29:32.732Z,27.81
2019-06-27T15:32:38.946Z,29.65
2019-06-27T15:35:52.513Z,28.79
2019-06-27T15:38:54.213Z,29.57
2019-06-27T15:42:01.564Z,28.72
2019-06-27T15:45:09.348Z,30.13
2019-06-27T15:48:15.399Z,29.64
2019-06-27T15:51:21.491Z,30.28
2019-06-27T15:54:27.928Z,29.51
2019-06-27T15:57:36.493Z,28.99
2019-06-27T16:00:42.829Z,29.46
2019-06-27T16:03:50.845Z,29.85
2019-06-27T16:06:56.924Z,30.17
2019-06-27T16:10:04.312Z,31.05
2019-06-27T16:13:10.417Z,30.78
2019-06-27T16:16:16.941Z,30.94
2019-06-27T16:19:23.220Z,31.34
2019-06-27T16:22:29.317Z,32.21
2019-06-27T16:25:35.571Z,32.16
2019-06-27T16:28:41.592Z,31.85
2019-06-27T16:31:47.714Z,32.17
2019-06-27T16:34:53.896Z,32.89
2019-06-27T16:38:00.154Z,33.05
2019-06-27T16:41:06.939Z,32.76
2019-06-27T16:44:12.979Z,32.79
2019-06-27T16:47:19.138Z,33.45
2019-06-27T16:50:25.203Z,33.89
2019-06-27T16:53:31.769Z,33.28
2019-06-27T16:56:38.194Z,33.15
2019-06-27T16:59:44.387Z,33.51
2019-06-27T17:02:50.428Z,33.36
2019-06-27T17:05:57.427Z,33.54
2019-06-27T17:09:05.279Z,33.01
2019-06-27T17:12:11.341Z,33.18
2019-06-27T17:15:18.118Z,34.41
2019-06-27T17:18:24.150Z,33.75
2019-06-27T17:21:30.289Z,33.31
2019-06-27T17:24:37.869Z,33.70
2019-06-27T17:27:43.940Z,33.53
2019-06-27T17:30:49.967Z,34.52
2019-06-27T17:33:57.755Z,33.96
2019-06-27T17:37:03.810Z,33.21
2019-06-27T17:40:10.767Z,34.41
2019-06-27T17:43:16.804Z,34.09
2019-06-27T17:46:22.909Z,34.01
2019-06-27T17:49:29.184Z,35.52
2019-06-27T17:52:36.003Z,37.17
2019-06-27T17:55:42.029Z,37.67
2019-06-27T17:58:48.576Z,38.80
2019-06-27T18:01:54.766Z,39.69
2019-06-27T18:05:00.826Z,39.16
2019-06-27T18:08:06.997Z,38.10
2019-06-27T18:11:13.313Z,38.17
2019-06-27T18:14:19.363Z,39.93
2019-06-27T18:17:33.427Z,39.64
2019-06-27T18:20:33.357Z,40.50
2019-06-27T18:23:39.436Z,39.95
2019-06-27T18:26:45.871Z,41.27
2019-06-27T18:29:51.990Z,42.29
2019-06-27T18:32:58.020Z,42.69
2019-06-27T18:36:04.222Z,43.01
2019-06-27T18:39:10.457Z,42.30
2019-06-27T18:42:16.568Z,43.24
2019-06-27T18:45:24.229Z,44.26
2019-06-27T18:48:31.121Z,44.02
2019-06-27T18:51:37.161Z,44.79
2019-06-27T18:54:43.243Z,44.30
2019-06-27T18:57:49.804Z,45.29
2019-06-27T19:00:56.729Z,46.13
2019-06-27T19:04:03.040Z,47.74
2019-06-27T19:07:09.100Z,47.54
2019-06-27T19:10:17.334Z,47.31
2019-06-27T19:13:26.319Z,47.85
2019-06-27T19:16:32.661Z,48.95
2019-06-27T19:19:41.095Z,48.85
2019-06-27T19:23:05.976Z,52.95
2019-06-27T19:26:12.059Z,55.17
2019-06-27T19:29:18.374Z,56.04
2019-06-27T19:32:25.090Z,56.49
2019-06-27T19:35:31.408Z,60.30
2019-06-27T19:38:37.857Z,58.53
2019-06-27T19:41:44.340Z,62.37
2019-06-27T19:44:50.681Z,63.23
2019-06-27T19:47:57.272Z,61.71
2019-06-27T19:51:04.347Z,60.74
2019-06-27T19:54:10.693Z,61.60
2019-06-27T19:57:17.194Z,63.39
2019-06-27T20:00:23.941Z,61.96
2019-06-27T20:03:30.696Z,65.40
2019-06-27T20:06:37.024Z,63.03
2019-06-27T20:09:43.612Z,63.55
2019-06-27T20:12:51.280Z,68.28
2019-06-27T20:15:58.275Z,63.98
2019-06-27T20:19:05.923Z,65.58
2019-06-27T20:22:12.961Z,66.70
2019-06-27T20:25:19.619Z,66.72
2019-06-27T20:28:26.046Z,69.72
2019-06-27T20:31:32.385Z,69.59
2019-06-27T20:34:39.557Z,68.79
2019-06-27T20:37:46.009Z,68.80
2019-06-27T20:40:52.744Z,68.00
2019-06-27T20:43:59.068Z,68.94
2019-06-27T20:47:05.755Z,75.87
2019-06-27T20:50:13.233Z,74.12
2019-06-27T20:53:19.588Z,71.85
2019-06-27T20:56:26.018Z,72.55
2019-06-27T20:59:32.572Z,73.59
2019-06-27T21:02:39.377Z,72.66
2019-06-27T21:05:46.057Z,79.67
2019-06-27T21:08:52.641Z,82.08
2019-06-27T21:11:59.022Z,80.28
2019-06-27T21:15:05.740Z,77.14
2019-06-27T21:18:12.472Z,79.73
2019-06-27T21:21:19.505Z,78.87
2019-06-27T21:24:26.467Z,82.90
2019-06-27T21:27:32.890Z,83.84
2019-06-27T21:30:39.361Z,85.53
2019-06-27T21:33:46.062Z,81.15
2019-06-27T21:36:53.680Z,82.44
2019-06-27T21:39:59.992Z,81.46
2019-06-27T21:43:06.604Z,82.63
2019-06-27T21:46:13.226Z,84.39
2019-06-27T21:49:19.557Z,83.60
2019-06-27T21:52:26.326Z,82.93
2019-06-27T21:55:32.709Z,84.40
2019-06-27T21:58:39.377Z,83.83
2019-06-27T22:01:45.872Z,86.83
2019-06-27T22:04:52.204Z,84.49
2019-06-27T22:07:58.898Z,84.58
2019-06-27T22:11:05.363Z,83.43
2019-06-27T22:14:11.758Z,82.76
2019-06-27T22:17:18.916Z,82.79
2019-06-27T22:20:25.345Z,87.47
2019-06-27T22:23:31.929Z,85.40
2019-06-27T22:26:39.373Z,88.92
2019-06-27T22:29:45.692Z,87.64
2019-06-27T22:32:52.097Z,86.25
2019-06-27T22:35:58.515Z,88.11
2019-06-27T22:39:36.254Z,87.19
2019-06-27T22:42:48.966Z,88.36
2019-06-27T22:46:13.436Z,85.76
2019-06-27T22:49:18.861Z,90.58
2019-06-27T22:52:53.258Z,90.42
2019-06-27T22:55:59.752Z,89.76
2019-06-27T22:59:06.215Z,92.49
2019-06-27T23:02:12.561Z,94.04
2019-06-27T23:05:19.374Z,93.72
2019-06-27T23:08:27.022Z,93.38
2019-06-27T23:11:33.443Z,92.75
2019-06-27T23:14:39.916Z,98.28
2019-06-27T23:17:46.361Z,98.85
2019-06-27T23:20:52.939Z,97.97
2019-06-27T23:23:59.281Z,97.63
2019-06-27T23:27:05.962Z,97.97
2019-06-27T23:30:13.226Z,99.40
2019-06-27T23:33:19.553Z,100.00
2019-06-27T23:36:25.905Z,100.00
2019-06-27T23:39:32.219Z,99.27
2019-06-27T23:42:38.723Z,98.83
2019-06-27T23:45:45.153Z,100.00
2019-06-27T23:48:54.544Z,100.00
2019-06-27T23:52:00.966Z,98.25
2019-06-27T23:55:07.875Z,100.00
2019-06-27T23:58:14.217Z,100.00
